createdAt,value
2018-03-31T00:00:08.464Z,98677.72
2018-03-31T00:01:12.556Z,98682.39
2018-03-31T00:02:16.618Z,98676.39
2018-03-31T00:03:21.461Z,98673.62
2018-03-31T00:04:25.519Z,98677.95
2018-03-31T00:05:30.365Z,98675.76
2018-03-31T00:06:35.219Z,98670.92
2018-03-31T00:07:39.287Z,98676.27
2018-03-31T00:08:44.123Z,98676.64
2018-03-31T00:09:48.174Z,98684.80
2018-03-31T00:10:52.235Z,98682.73
2018-03-31T00:11:56.315Z,98681.84
2018-03-31T00:13:00.396Z,98680.00
2018-03-31T00:14:05.220Z,98675.20
2018-03-31T00:15:10.054Z,98675.87
2018-03-31T00:16:14.877Z,98671.79
2018-03-31T00:17:19.734Z,98666.16
2018-03-31T00:18:23.793Z,98664.73
2018-03-31T00:19:28.624Z,98655.09
2018-03-31T00:20:32.676Z,98657.91
2018-03-31T00:21:36.732Z,98659.17
2018-03-31T00:22:43.279Z,98655.45
2018-03-31T00:23:48.115Z,98660.01
2018-03-31T00:24:52.171Z,98652.66
2018-03-31T00:25:57.441Z,98654.66
2018-03-31T00:27:01.493Z,98653.61
2018-03-31T00:28:05.596Z,98650.89
2018-03-31T00:29:09.652Z,98653.56
2018-03-31T00:30:13.711Z,98655.98
2018-03-31T00:31:17.786Z,98651.16
2018-03-31T00:32:21.846Z,98658.80
2018-03-31T00:33:26.772Z,98662.92
2018-03-31T00:34:31.609Z,98670.16
2018-03-31T00:35:35.662Z,98667.34
2018-03-31T00:36:39.749Z,98673.73
2018-03-31T00:37:44.000Z,98676.01
2018-03-31T00:38:48.094Z,98673.17
2018-03-31T00:39:52.912Z,98678.81
2018-03-31T00:40:57.746Z,98675.81
2018-03-31T00:42:01.797Z,98676.23
2018-03-31T00:43:05.862Z,98672.75
2018-03-31T00:44:09.956Z,98673.21
2018-03-31T00:45:14.019Z,98671.52
2018-03-31T00:46:18.866Z,98665.67
2018-03-31T00:47:22.944Z,98665.53
2018-03-31T00:48:27.772Z,98666.53
2018-03-31T00:49:32.620Z,98670.84
2018-03-31T00:50:36.677Z,98670.97
2018-03-31T00:51:40.740Z,98671.09
2018-03-31T00:52:44.847Z,98677.20
2018-03-31T00:53:48.932Z,98669.89
2018-03-31T00:54:53.015Z,98667.23
2018-03-31T00:55:57.846Z,98664.10
2018-03-31T00:57:01.899Z,98658.34
2018-03-31T00:58:05.954Z,98660.20
2018-03-31T00:59:10.012Z,98663.17
2018-03-31T01:00:14.090Z,98660.72
2018-03-31T01:02:36.266Z,98654.44
2018-03-31T01:03:41.106Z,98646.75
2018-03-31T01:04:45.156Z,98640.78
2018-03-31T01:05:49.220Z,98635.45
2018-03-31T01:06:53.304Z,98638.08
2018-03-31T01:07:57.368Z,98639.05
2018-03-31T01:09:01.424Z,98625.80
2018-03-31T01:10:05.515Z,98621.66
2018-03-31T01:11:09.592Z,98623.70
2018-03-31T01:12:14.419Z,98625.06
2018-03-31T01:13:19.058Z,98615.27
2018-03-31T01:14:23.385Z,98610.76
2018-03-31T01:15:27.436Z,98606.80
2018-03-31T01:16:32.299Z,98604.61
2018-03-31T01:17:36.357Z,98603.95
2018-03-31T01:18:40.420Z,98601.98
2018-03-31T01:19:44.480Z,98604.72
2018-03-31T01:20:49.308Z,98608.05
2018-03-31T01:21:53.600Z,98610.82
2018-03-31T01:22:58.426Z,98600.39
2018-03-31T01:24:02.537Z,98605.78
2018-03-31T01:25:07.353Z,98603.39
2018-03-31T01:26:12.172Z,98603.02
2018-03-31T01:27:16.278Z,98599.05
2018-03-31T01:28:21.103Z,98600.25
2018-03-31T01:29:25.159Z,98603.70
2018-03-31T01:30:29.236Z,98608.55
2018-03-31T01:31:33.289Z,98613.59
2018-03-31T01:32:38.146Z,98617.80
2018-03-31T01:33:42.188Z,98616.31
2018-03-31T01:34:46.281Z,98613.01
2018-03-31T01:35:50.339Z,98617.03
2018-03-31T01:36:54.395Z,98617.45
2018-03-31T01:37:58.479Z,98619.55
2018-03-31T01:39:02.532Z,98618.41
2018-03-31T01:40:06.652Z,98616.33
2018-03-31T01:41:11.668Z,98619.73
2018-03-31T01:42:15.718Z,98617.75
2018-03-31T01:43:19.801Z,98613.19
2018-03-31T01:44:23.870Z,98614.52
2018-03-31T01:45:27.937Z,98612.69
2018-03-31T01:46:32.768Z,98613.02
2018-03-31T01:47:37.594Z,98605.70
2018-03-31T01:48:42.449Z,98612.56
2018-03-31T01:49:46.501Z,98608.76
2018-03-31T01:50:50.567Z,98611.26
2018-03-31T01:51:54.636Z,98604.45
2018-03-31T01:52:58.696Z,98608.61
2018-03-31T01:54:02.772Z,98612.83
2018-03-31T01:55:06.833Z,98606.70
2018-03-31T01:56:10.900Z,98605.63
2018-03-31T01:57:14.965Z,98597.05
2018-03-31T01:58:19.029Z,98604.04
2018-03-31T01:59:23.881Z,98605.09
2018-03-31T02:00:28.706Z,98607.42
2018-03-31T02:01:32.761Z,98604.05
2018-03-31T02:02:37.618Z,98610.73
2018-03-31T02:03:41.685Z,98605.78
2018-03-31T02:04:46.546Z,98599.34
2018-03-31T02:05:50.604Z,98608.17
2018-03-31T02:06:55.464Z,98605.66
2018-03-31T02:07:59.525Z,98601.55
2018-03-31T02:09:04.356Z,98602.31
2018-03-31T02:10:09.188Z,98600.77
2018-03-31T02:11:13.254Z,98600.61
2018-03-31T02:12:18.081Z,98602.81
2018-03-31T02:13:22.136Z,98598.58
2018-03-31T02:14:26.196Z,98597.14
2018-03-31T02:15:31.054Z,98598.44
2018-03-31T02:16:35.118Z,98600.27
2018-03-31T02:17:39.945Z,98599.09
2018-03-31T02:18:44.016Z,98598.62
2018-03-31T02:19:48.080Z,98590.37
2018-03-31T02:20:52.163Z,98593.40
2018-03-31T02:21:56.233Z,98594.61
2018-03-31T02:23:00.317Z,98584.17
2018-03-31T02:24:04.402Z,98585.84
2018-03-31T02:25:08.463Z,98584.44
2018-03-31T02:26:13.305Z,98579.31
2018-03-31T02:27:17.372Z,98577.41
2018-03-31T02:28:22.192Z,98572.75
2018-03-31T02:29:26.790Z,98580.14
2018-03-31T02:30:30.853Z,98569.98
2018-03-31T02:31:34.938Z,98573.53
2018-03-31T02:32:38.993Z,98571.86
2018-03-31T02:33:43.057Z,98573.06
2018-03-31T02:34:47.145Z,98565.23
2018-03-31T02:35:51.208Z,98565.86
2018-03-31T02:36:56.470Z,98563.67
2018-03-31T02:38:00.529Z,98557.42
2018-03-31T02:39:04.597Z,98561.37
2018-03-31T02:40:08.660Z,98563.27
2018-03-31T02:41:13.486Z,98565.50
2018-03-31T02:42:18.395Z,98564.83
2018-03-31T02:43:22.215Z,98561.70
2018-03-31T02:44:26.292Z,98568.34
2018-03-31T02:45:31.117Z,98565.25
2018-03-31T02:46:35.935Z,98562.53
2018-03-31T02:47:40.784Z,98557.53
2018-03-31T02:48:44.845Z,98561.19
2018-03-31T02:49:49.685Z,98563.05
2018-03-31T02:50:54.513Z,98563.09
2018-03-31T02:51:58.569Z,98564.72
2018-03-31T02:53:02.642Z,98565.78
2018-03-31T02:54:06.705Z,98562.76
2018-03-31T02:55:11.516Z,98557.83
2018-03-31T02:56:16.338Z,98565.74
2018-03-31T02:57:21.160Z,98564.55
2018-03-31T02:58:26.000Z,98564.44
2018-03-31T02:59:30.054Z,98571.48
2018-03-31T03:00:34.108Z,98566.40
2018-03-31T03:01:38.168Z,98569.63
2018-03-31T03:02:42.228Z,98572.33
2018-03-31T03:03:46.321Z,98567.58
2018-03-31T03:04:50.391Z,98568.67
2018-03-31T03:05:55.212Z,98563.13
2018-03-31T03:07:00.042Z,98561.81
2018-03-31T03:08:04.873Z,98563.16
2018-03-31T03:09:08.957Z,98561.28
2018-03-31T03:10:13.999Z,98562.12
2018-03-31T03:11:18.085Z,98562.72
2018-03-31T03:12:22.913Z,98555.59
2018-03-31T03:13:27.734Z,98554.37
2018-03-31T03:14:31.817Z,98548.90
2018-03-31T03:15:35.874Z,98545.94
2018-03-31T03:16:39.942Z,98535.98
2018-03-31T03:17:43.996Z,98532.53
2018-03-31T03:18:48.056Z,98536.66
2018-03-31T03:19:52.146Z,98528.91
2018-03-31T03:20:56.225Z,98533.22
2018-03-31T03:22:00.050Z,98525.59
2018-03-31T03:23:04.112Z,98523.34
2018-03-31T03:24:08.178Z,98517.98
2018-03-31T03:25:12.264Z,98520.48
2018-03-31T03:26:16.321Z,98510.39
2018-03-31T03:27:20.390Z,98516.27
2018-03-31T03:28:24.444Z,98507.62
2018-03-31T03:29:29.280Z,98496.82
2018-03-31T03:30:33.429Z,98500.92
2018-03-31T03:31:37.485Z,98492.39
2018-03-31T03:32:41.553Z,98489.59
2018-03-31T03:33:45.612Z,98484.92
2018-03-31T03:34:49.682Z,98481.81
2018-03-31T03:35:54.017Z,98488.47
2018-03-31T03:36:58.076Z,98483.45
2018-03-31T03:38:02.131Z,98477.21
2018-03-31T03:39:06.213Z,98478.40
2018-03-31T03:40:10.284Z,98478.52
2018-03-31T03:41:15.130Z,98481.78
2018-03-31T03:42:19.190Z,98472.77
2018-03-31T03:43:23.260Z,98480.86
2018-03-31T03:44:27.398Z,98472.77
2018-03-31T03:45:31.508Z,98476.55
2018-03-31T03:46:35.605Z,98476.25
2018-03-31T03:47:40.460Z,98475.80
2018-03-31T03:48:45.453Z,98481.91
2018-03-31T03:49:50.277Z,98485.89
2018-03-31T03:50:55.120Z,98489.05
2018-03-31T03:51:59.192Z,98492.94
2018-03-31T03:53:04.029Z,98496.88
2018-03-31T03:54:08.113Z,98496.38
2018-03-31T03:55:12.163Z,98496.84
2018-03-31T03:56:16.220Z,98499.78
2018-03-31T03:57:21.075Z,98505.85
2018-03-31T03:58:25.164Z,98503.86
2018-03-31T03:59:29.244Z,98504.28
2018-03-31T04:00:34.810Z,98506.61
2018-03-31T04:01:38.872Z,98507.76
2018-03-31T04:02:42.968Z,98509.81
2018-03-31T04:03:47.035Z,98510.23
2018-03-31T04:04:51.105Z,98516.14
2018-03-31T04:05:55.936Z,98517.59
2018-03-31T04:06:59.773Z,98509.58
2018-03-31T04:08:03.632Z,98506.44
2018-03-31T04:09:07.700Z,98507.20
2018-03-31T04:10:12.532Z,98505.48
2018-03-31T04:11:17.422Z,98503.34
2018-03-31T04:12:21.494Z,98505.52
2018-03-31T04:13:25.597Z,98497.22
2018-03-31T04:14:29.428Z,98492.19
2018-03-31T04:15:34.252Z,98497.68
2018-03-31T04:16:38.319Z,98495.50
2018-03-31T04:17:42.378Z,98496.98
2018-03-31T04:18:47.224Z,98490.91
2018-03-31T04:19:51.288Z,98491.63
2018-03-31T04:20:55.345Z,98488.13
2018-03-31T04:21:59.408Z,98480.52
2018-03-31T04:23:04.245Z,98487.52
2018-03-31T04:24:08.332Z,98486.63
2018-03-31T04:25:13.165Z,98479.06
2018-03-31T04:26:17.226Z,98479.34
2018-03-31T04:27:21.302Z,98479.45
2018-03-31T04:28:25.366Z,98474.66
2018-03-31T04:29:29.461Z,98473.73
2018-03-31T04:30:34.290Z,98472.14
2018-03-31T04:31:38.345Z,98467.41
2018-03-31T04:32:42.400Z,98464.78
2018-03-31T04:33:46.465Z,98464.26
2018-03-31T04:34:51.317Z,98473.12
2018-03-31T04:35:55.384Z,98471.81
2018-03-31T04:37:00.217Z,98467.76
2018-03-31T04:38:05.045Z,98470.36
2018-03-31T04:39:09.125Z,98467.76
2018-03-31T04:40:13.200Z,98472.23
2018-03-31T04:41:17.273Z,98463.94
2018-03-31T04:42:21.336Z,98470.99
2018-03-31T04:43:26.165Z,98475.39
2018-03-31T04:44:30.994Z,98467.17
2018-03-31T04:45:35.093Z,98470.77
2018-03-31T04:46:39.934Z,98473.17
2018-03-31T04:47:44.001Z,98475.66
2018-03-31T04:48:48.832Z,98478.36
2018-03-31T04:49:53.666Z,98478.07
2018-03-31T04:50:57.748Z,98472.95
2018-03-31T04:52:02.349Z,98469.02
2018-03-31T04:53:06.431Z,98472.61
2018-03-31T04:54:10.264Z,98465.73
2018-03-31T04:55:15.076Z,98472.00
2018-03-31T04:56:19.932Z,98474.41
2018-03-31T04:57:23.998Z,98470.77
2018-03-31T04:58:28.829Z,98477.27
2018-03-31T04:59:33.665Z,98483.19
2018-03-31T05:00:37.729Z,98482.69
2018-03-31T05:01:41.871Z,98489.30
2018-03-31T05:02:45.965Z,98485.36
2018-03-31T05:03:50.573Z,98488.76
2018-03-31T05:04:55.169Z,98481.98
2018-03-31T05:05:59.229Z,98492.56
2018-03-31T05:07:03.080Z,98485.94
2018-03-31T05:08:07.908Z,98477.88
2018-03-31T05:09:12.741Z,98483.84
2018-03-31T05:10:16.801Z,98478.14
2018-03-31T05:11:20.864Z,98477.77
2018-03-31T05:12:24.718Z,98477.26
2018-03-31T05:13:29.540Z,98476.34
2018-03-31T05:14:34.379Z,98476.42
2018-03-31T05:15:38.213Z,98485.47
2018-03-31T05:16:42.286Z,98489.75
2018-03-31T05:17:46.382Z,98487.05
2018-03-31T05:18:50.220Z,98490.39
2018-03-31T05:19:54.278Z,98484.27
2018-03-31T05:20:58.352Z,98482.09
2018-03-31T05:22:02.424Z,98486.03
2018-03-31T05:23:06.517Z,98485.98
2018-03-31T05:24:10.597Z,98490.42
2018-03-31T05:25:14.672Z,98498.00
2018-03-31T05:26:19.560Z,98501.59
2018-03-31T05:27:23.383Z,98498.69
2018-03-31T05:28:28.233Z,98508.67
2018-03-31T05:29:32.294Z,98503.31
2018-03-31T05:30:36.346Z,98503.42
2018-03-31T05:31:40.181Z,98507.20
2018-03-31T05:32:44.238Z,98506.02
2018-03-31T05:33:48.374Z,98510.72
2018-03-31T05:34:52.433Z,98505.05
2018-03-31T05:35:56.496Z,98504.31
2018-03-31T05:37:01.095Z,98495.77
2018-03-31T05:38:05.153Z,98492.44
2018-03-31T05:39:09.265Z,98491.01
2018-03-31T05:40:13.101Z,98484.89
2018-03-31T05:41:17.947Z,98485.44
2018-03-31T05:42:22.778Z,98489.88
2018-03-31T05:43:28.125Z,98488.03
2018-03-31T05:44:32.285Z,98485.70
2018-03-31T05:45:36.354Z,98481.31
2018-03-31T05:46:40.416Z,98472.72
2018-03-31T05:47:45.254Z,98476.28
2018-03-31T05:48:49.316Z,98475.36
2018-03-31T05:49:53.409Z,98475.91
2018-03-31T05:50:57.480Z,98479.49
2018-03-31T05:52:01.544Z,98482.38
2018-03-31T05:53:05.618Z,98480.45
2018-03-31T05:54:09.896Z,98478.58
2018-03-31T05:55:13.980Z,98475.73
2018-03-31T05:56:18.049Z,98469.87
2018-03-31T05:57:22.888Z,98472.77
2018-03-31T05:58:26.958Z,98470.45
2018-03-31T05:59:31.027Z,98471.36
2018-03-31T06:00:35.102Z,98465.19
2018-03-31T06:01:39.167Z,98474.50
2018-03-31T06:02:43.999Z,98473.80
2018-03-31T06:03:48.844Z,98473.76
2018-03-31T06:04:52.910Z,98475.27
2018-03-31T06:05:56.998Z,98477.00
2018-03-31T06:07:01.054Z,98468.98
2018-03-31T06:08:05.113Z,98473.65
2018-03-31T06:09:09.338Z,98476.54
2018-03-31T06:10:14.158Z,98473.94
2018-03-31T06:11:18.260Z,98474.31
2018-03-31T06:12:23.095Z,98478.02
2018-03-31T06:13:27.170Z,98485.16
2018-03-31T06:14:31.992Z,98480.08
2018-03-31T06:15:36.056Z,98482.47
2018-03-31T06:16:40.141Z,98483.52
2018-03-31T06:17:44.202Z,98488.06
2018-03-31T06:18:49.052Z,98485.21
2018-03-31T06:19:53.117Z,98489.41
2018-03-31T06:20:57.942Z,98482.48
2018-03-31T06:22:02.036Z,98491.04
2018-03-31T06:23:06.107Z,98492.27
2018-03-31T06:24:10.176Z,98497.30
2018-03-31T06:25:14.244Z,98498.44
2018-03-31T06:26:19.088Z,98500.16
2018-03-31T06:27:23.173Z,98500.63
2018-03-31T06:28:28.031Z,98504.64
2018-03-31T06:29:32.194Z,98505.98
2018-03-31T06:30:36.468Z,98513.70
2018-03-31T06:31:40.707Z,98508.80
2018-03-31T06:32:45.568Z,98515.22
2018-03-31T06:33:49.642Z,98511.41
2018-03-31T06:34:53.719Z,98516.70
2018-03-31T06:35:57.776Z,98514.63
2018-03-31T06:37:01.836Z,98520.14
2018-03-31T06:38:06.698Z,98513.70
2018-03-31T06:39:10.763Z,98518.58
2018-03-31T06:40:15.585Z,98522.14
2018-03-31T06:41:20.425Z,98520.80
2018-03-31T06:42:24.488Z,98513.79
2018-03-31T06:43:29.344Z,98514.67
2018-03-31T06:44:33.404Z,98526.17
2018-03-31T06:45:38.236Z,98519.97
2018-03-31T06:46:43.132Z,98525.17
2018-03-31T06:47:48.119Z,98522.14
2018-03-31T06:48:52.208Z,98518.95
2018-03-31T06:49:56.375Z,98518.33
2018-03-31T06:51:00.436Z,98514.05
2018-03-31T06:52:04.579Z,98521.98
2018-03-31T06:53:09.429Z,98513.21
2018-03-31T06:54:14.464Z,98518.95
2018-03-31T06:55:18.522Z,98515.17
2018-03-31T06:56:22.348Z,98518.70
2018-03-31T06:57:27.248Z,98519.70
2018-03-31T06:58:31.307Z,98524.03
2018-03-31T06:59:35.400Z,98519.33
2018-03-31T07:00:39.457Z,98512.07
2018-03-31T07:01:43.543Z,98519.83
2018-03-31T07:02:48.618Z,98522.86
2018-03-31T07:03:52.739Z,98517.69
2018-03-31T07:04:56.864Z,98511.52
2018-03-31T07:06:00.940Z,98512.78
2018-03-31T07:07:05.047Z,98516.77
2018-03-31T07:08:09.115Z,98516.55
2018-03-31T07:09:13.945Z,98513.53
2018-03-31T07:10:18.045Z,98512.73
2018-03-31T07:11:22.666Z,98513.23
2018-03-31T07:12:26.730Z,98511.98
2018-03-31T07:13:30.808Z,98515.00
2018-03-31T07:14:34.948Z,98515.16
2018-03-31T07:15:39.792Z,98512.60
2018-03-31T07:16:43.865Z,98511.34
2018-03-31T07:17:47.925Z,98510.09
2018-03-31T07:18:52.106Z,98513.57
2018-03-31T07:19:56.178Z,98508.02
2018-03-31T07:21:01.040Z,98510.62
2018-03-31T07:22:05.129Z,98505.22
2018-03-31T07:23:09.193Z,98507.86
2018-03-31T07:24:13.259Z,98505.77
2018-03-31T07:25:17.330Z,98505.77
2018-03-31T07:26:22.406Z,98510.50
2018-03-31T07:27:27.288Z,98511.68
2018-03-31T07:28:31.372Z,98505.55
2018-03-31T07:29:36.199Z,98504.34
2018-03-31T07:30:40.265Z,98512.31
2018-03-31T07:31:44.364Z,98510.25
2018-03-31T07:32:48.435Z,98509.67
2018-03-31T07:33:52.501Z,98502.40
2018-03-31T07:34:56.560Z,98499.59
2018-03-31T07:36:00.619Z,98499.09
2018-03-31T07:37:04.724Z,98502.07
2018-03-31T07:38:08.781Z,98498.55
2018-03-31T07:39:13.354Z,98499.47
2018-03-31T07:40:17.446Z,98500.27
2018-03-31T07:41:21.515Z,98499.93
2018-03-31T07:42:26.561Z,98499.17
2018-03-31T07:43:30.616Z,98496.62
2018-03-31T07:44:34.704Z,98498.76
2018-03-31T07:45:38.776Z,98493.13
2018-03-31T07:46:42.824Z,98495.73
2018-03-31T07:47:48.426Z,98496.70
2018-03-31T07:48:52.515Z,98494.59
2018-03-31T07:49:56.566Z,98490.27
2018-03-31T07:51:00.634Z,98492.87
2018-03-31T07:52:04.732Z,98491.11
2018-03-31T07:53:09.052Z,98490.27
2018-03-31T07:54:13.131Z,98492.16
2018-03-31T07:55:17.203Z,98494.39
2018-03-31T07:56:22.155Z,98497.61
2018-03-31T07:57:26.316Z,98496.52
2018-03-31T07:58:30.408Z,98490.98
2018-03-31T07:59:34.476Z,98488.46
2018-03-31T08:00:38.539Z,98494.97
2018-03-31T08:01:43.410Z,98493.20
2018-03-31T08:02:47.499Z,98484.89
2018-03-31T08:03:51.621Z,98489.05
2018-03-31T08:04:55.696Z,98490.69
2018-03-31T08:05:59.772Z,98480.03
2018-03-31T08:07:04.614Z,98481.08
2018-03-31T08:08:08.919Z,98476.54
2018-03-31T08:09:13.059Z,98475.62
2018-03-31T08:10:17.154Z,98477.22
2018-03-31T08:11:21.222Z,98479.31
2018-03-31T08:12:25.331Z,98477.97
2018-03-31T08:13:29.412Z,98483.02
2018-03-31T08:14:34.277Z,98489.39
2018-03-31T08:15:38.366Z,98502.66
2018-03-31T08:16:42.432Z,98512.14
2018-03-31T08:17:46.484Z,98517.72
2018-03-31T08:18:50.541Z,98516.88
2018-03-31T08:19:55.419Z,98520.23
2018-03-31T08:20:59.529Z,98517.30
2018-03-31T08:22:04.375Z,98517.85
2018-03-31T08:23:09.217Z,98521.97
2018-03-31T08:24:13.311Z,98521.69
2018-03-31T08:25:18.176Z,98520.59
2018-03-31T08:26:22.247Z,98513.55
2018-03-31T08:27:26.298Z,98515.59
2018-03-31T08:28:30.369Z,98516.90
2018-03-31T08:29:34.429Z,98520.47
2018-03-31T08:30:39.292Z,98517.49
2018-03-31T08:31:43.344Z,98513.55
2018-03-31T08:32:48.178Z,98516.94
2018-03-31T08:33:52.453Z,98511.36
2018-03-31T08:34:56.528Z,98512.70
2018-03-31T08:36:00.637Z,98513.34
2018-03-31T08:37:04.710Z,98507.75
2018-03-31T08:38:08.793Z,98505.95
2018-03-31T08:39:13.613Z,98500.28
2018-03-31T08:40:18.436Z,98500.33
2018-03-31T08:41:23.298Z,98496.84
2018-03-31T08:42:27.356Z,98499.02
2018-03-31T08:43:31.957Z,98503.89
2018-03-31T08:44:36.854Z,98498.22
2018-03-31T08:45:40.913Z,98492.94
2018-03-31T08:46:44.929Z,98495.74
2018-03-31T08:47:48.774Z,98493.81
2018-03-31T08:48:52.832Z,98494.74
2018-03-31T08:49:56.891Z,98497.51
2018-03-31T08:51:01.728Z,98492.43
2018-03-31T08:52:05.815Z,98482.06
2018-03-31T08:53:10.647Z,98486.97
2018-03-31T08:54:14.704Z,98493.48
2018-03-31T08:55:18.765Z,98491.64
2018-03-31T08:56:23.075Z,98495.12
2018-03-31T08:57:27.172Z,98497.52
2018-03-31T08:58:31.238Z,98503.00
2018-03-31T08:59:36.082Z,98505.36
2018-03-31T09:00:40.904Z,98509.56
2018-03-31T09:01:44.963Z,98502.05
2018-03-31T09:02:49.048Z,98498.77
2018-03-31T09:03:53.160Z,98499.48
2018-03-31T09:04:57.389Z,98495.45
2018-03-31T09:06:01.462Z,98493.09
2018-03-31T09:07:05.609Z,98486.54
2018-03-31T09:08:10.465Z,98483.56
2018-03-31T09:09:14.543Z,98482.81
2018-03-31T09:10:19.577Z,98485.84
2018-03-31T09:11:23.669Z,98484.63
2018-03-31T09:12:27.745Z,98483.56
2018-03-31T09:13:31.824Z,98490.23
2018-03-31T09:14:35.881Z,98492.80
2018-03-31T09:15:39.933Z,98492.75
2018-03-31T09:16:44.058Z,98491.70
2018-03-31T09:17:48.297Z,98495.52
2018-03-31T09:18:52.380Z,98501.19
2018-03-31T09:19:57.221Z,98504.89
2018-03-31T09:21:01.483Z,98509.34
2018-03-31T09:22:05.325Z,98510.85
2018-03-31T09:23:09.549Z,98509.31
2018-03-31T09:24:13.423Z,98516.81
2018-03-31T09:25:17.486Z,98505.82
2018-03-31T09:26:21.622Z,98514.22
2018-03-31T09:27:25.693Z,98513.63
2018-03-31T09:28:30.541Z,98513.41
2018-03-31T09:29:34.624Z,98507.37
2018-03-31T09:30:39.446Z,98509.22
2018-03-31T09:31:44.280Z,98510.17
2018-03-31T09:32:48.336Z,98517.85
2018-03-31T09:33:52.465Z,98516.50
2018-03-31T09:34:56.656Z,98515.20
2018-03-31T09:36:01.500Z,98518.15
2018-03-31T09:37:06.326Z,98513.44
2018-03-31T09:38:11.168Z,98513.36
2018-03-31T09:39:15.237Z,98513.36
2018-03-31T09:40:20.151Z,98510.00
2018-03-31T09:41:24.201Z,98503.62
2018-03-31T09:42:28.361Z,98505.30
2018-03-31T09:43:32.425Z,98502.19
2018-03-31T09:44:36.508Z,98505.13
2018-03-31T09:45:40.622Z,98504.63
2018-03-31T09:46:44.707Z,98510.58
2018-03-31T09:47:49.797Z,98504.36
2018-03-31T09:48:54.637Z,98507.85
2018-03-31T09:49:59.239Z,98510.41
2018-03-31T09:51:03.353Z,98510.19
2018-03-31T09:52:07.428Z,98509.94
2018-03-31T09:53:11.499Z,98504.98
2018-03-31T09:54:15.565Z,98502.66
2018-03-31T09:55:19.637Z,98500.16
2018-03-31T09:56:24.471Z,98501.16
2018-03-31T09:57:28.553Z,98497.41
2018-03-31T09:58:32.639Z,98498.63
2018-03-31T09:59:36.696Z,98491.02
2018-03-31T10:00:40.757Z,98492.17
2018-03-31T10:01:44.965Z,98492.01
2018-03-31T10:02:49.024Z,98489.73
2018-03-31T10:03:53.101Z,98499.73
2018-03-31T10:04:57.545Z,98494.52
2018-03-31T10:06:01.628Z,98501.41
2018-03-31T10:07:05.721Z,98498.22
2018-03-31T10:08:09.802Z,98502.08
2018-03-31T10:09:14.620Z,98499.94
2018-03-31T10:10:19.446Z,98498.34
2018-03-31T10:11:24.283Z,98500.73
2018-03-31T10:12:28.407Z,98496.73
2018-03-31T10:13:33.389Z,98498.98
2018-03-31T10:14:38.238Z,98496.06
2018-03-31T10:15:42.305Z,98493.09
2018-03-31T10:16:47.120Z,98492.63
2018-03-31T10:17:51.990Z,98489.50
2018-03-31T10:18:56.047Z,98494.94
2018-03-31T10:20:00.890Z,98499.97
2018-03-31T10:21:04.973Z,98500.64
2018-03-31T10:22:09.790Z,98503.11
2018-03-31T10:23:14.638Z,98505.95
2018-03-31T10:24:18.933Z,98513.11
2018-03-31T10:25:23.001Z,98506.97
2018-03-31T10:26:27.063Z,98507.85
2018-03-31T10:27:31.113Z,98512.94
2018-03-31T10:28:36.011Z,98512.43
2018-03-31T10:29:40.063Z,98519.73
2018-03-31T10:30:44.117Z,98524.16
2018-03-31T10:31:48.180Z,98520.63
2018-03-31T10:32:52.240Z,98521.46
2018-03-31T10:33:56.320Z,98517.55
2018-03-31T10:35:01.040Z,98520.41
2018-03-31T10:36:05.120Z,98521.29
2018-03-31T10:37:09.187Z,98523.84
2018-03-31T10:38:13.253Z,98524.78
2018-03-31T10:39:18.845Z,98526.26
2018-03-31T10:40:23.003Z,98526.15
2018-03-31T10:41:27.217Z,98524.84
2018-03-31T10:42:32.249Z,98521.69
2018-03-31T10:43:36.320Z,98526.72
2018-03-31T10:44:40.407Z,98521.05
2018-03-31T10:45:44.461Z,98522.87
2018-03-31T10:46:49.293Z,98524.42
2018-03-31T10:47:53.343Z,98521.30
2018-03-31T10:48:57.397Z,98519.48
2018-03-31T10:50:01.485Z,98521.35
2018-03-31T10:51:06.312Z,98519.84
2018-03-31T10:52:10.466Z,98521.25
2018-03-31T10:53:14.614Z,98516.88
2018-03-31T10:54:19.436Z,98517.80
2018-03-31T10:55:23.524Z,98505.13
2018-03-31T10:56:28.377Z,98507.59
2018-03-31T10:57:32.462Z,98509.89
2018-03-31T10:58:36.567Z,98505.15
2018-03-31T10:59:41.393Z,98510.75
2018-03-31T11:00:45.508Z,98505.59
2018-03-31T11:01:49.563Z,98509.59
2018-03-31T11:02:54.404Z,98510.71
2018-03-31T11:03:59.304Z,98509.64
2018-03-31T11:05:04.964Z,98511.27
2018-03-31T11:06:09.227Z,98509.84
2018-03-31T11:07:13.312Z,98508.81
2018-03-31T11:08:19.127Z,98516.22
2018-03-31T11:09:23.415Z,98512.35
2018-03-31T11:10:28.240Z,98511.89
2018-03-31T11:11:33.283Z,98504.23
2018-03-31T11:12:37.569Z,98505.83
2018-03-31T11:13:43.243Z,98504.62
2018-03-31T11:14:47.376Z,98502.10
2018-03-31T11:15:51.440Z,98504.12
2018-03-31T11:16:56.613Z,98504.71
2018-03-31T11:18:00.680Z,98504.71
2018-03-31T11:19:04.798Z,98506.80
2018-03-31T11:20:09.085Z,98510.62
2018-03-31T11:21:13.194Z,98507.69
2018-03-31T11:22:17.112Z,98509.30
2018-03-31T11:23:21.195Z,98502.03
2018-03-31T11:24:25.366Z,98507.40
2018-03-31T11:25:29.459Z,98504.64
2018-03-31T11:26:34.453Z,98504.17
2018-03-31T11:27:39.726Z,98507.40
2018-03-31T11:28:44.674Z,98503.92
2018-03-31T11:29:48.820Z,98503.64
2018-03-31T11:30:52.890Z,98506.34
2018-03-31T11:31:57.162Z,98502.93
2018-03-31T11:33:01.423Z,98508.16
2018-03-31T11:34:05.584Z,98507.50
2018-03-31T11:35:09.657Z,98508.16
2018-03-31T11:36:14.481Z,98511.42
2018-03-31T11:37:19.583Z,98505.54
2018-03-31T11:38:23.633Z,98504.89
2018-03-31T11:39:27.899Z,98509.49
2018-03-31T11:40:32.815Z,98508.38
2018-03-31T11:41:37.672Z,98509.77
2018-03-31T11:42:41.505Z,98515.55
2018-03-31T11:43:45.335Z,98512.83
2018-03-31T11:44:49.410Z,98516.64
2018-03-31T11:45:53.469Z,98514.94
2018-03-31T11:46:57.534Z,98513.14
2018-03-31T11:48:01.615Z,98506.88
2018-03-31T11:49:05.676Z,98514.41
2018-03-31T11:50:09.861Z,98517.91
2018-03-31T11:51:14.705Z,98523.78
2018-03-31T11:52:18.868Z,98523.83
2018-03-31T11:53:22.940Z,98525.59
2018-03-31T11:54:27.046Z,98534.27
2018-03-31T11:55:31.136Z,98537.92
2018-03-31T11:56:35.208Z,98532.13
2018-03-31T11:57:40.029Z,98537.87
2018-03-31T11:58:44.870Z,98536.33
2018-03-31T11:59:48.944Z,98532.93
2018-03-31T12:00:53.574Z,98537.63
2018-03-31T12:01:58.583Z,98537.13
2018-03-31T12:03:03.410Z,98542.02
2018-03-31T12:04:08.280Z,98545.09
2018-03-31T12:05:12.343Z,98543.66
2018-03-31T12:06:16.428Z,98556.62
2018-03-31T12:07:21.266Z,98554.72
2018-03-31T12:08:25.553Z,98550.38
2018-03-31T12:09:30.410Z,98551.08
2018-03-31T12:10:34.468Z,98547.95
2018-03-31T12:11:39.339Z,98549.73
2018-03-31T12:12:43.406Z,98551.36
2018-03-31T12:13:47.270Z,98548.42
2018-03-31T12:14:51.373Z,98557.56
2018-03-31T12:15:55.441Z,98549.77
2018-03-31T12:16:59.513Z,98553.30
2018-03-31T12:18:04.341Z,98559.14
2018-03-31T12:19:08.400Z,98565.34
2018-03-31T12:20:13.363Z,98561.89
2018-03-31T12:21:17.421Z,98562.41
2018-03-31T12:22:21.485Z,98564.13
2018-03-31T12:23:25.537Z,98562.09
2018-03-31T12:24:29.600Z,98563.95
2018-03-31T12:25:33.689Z,98569.67
2018-03-31T12:26:37.736Z,98566.28
2018-03-31T12:27:41.797Z,98567.80
2018-03-31T12:28:45.884Z,98567.91
2018-03-31T12:29:49.944Z,98567.21
2018-03-31T12:30:54.041Z,98574.63
2018-03-31T12:31:58.097Z,98580.59
2018-03-31T12:33:02.166Z,98579.60
2018-03-31T12:34:06.985Z,98575.27
2018-03-31T12:35:11.813Z,98572.46
2018-03-31T12:36:16.695Z,98573.09